Time;durP1;ratioP1;P1;durP2;ratioP2;P2;SDS_P1;SDS_P2;PMS_P1;PMS_P2;Temp;Humidity;BMP_temperature;BMP_pressure;BME280_temperature;BME280_humidity;BME280_pressure;Samples;Min_cycle;Max_cycle;Signal;HPM_P1;HPM_P2
2022/11/29 00:03:12;;;;;;;37.22;18.23;;;;;;;10.91;80.99;101438.00;10342710;28;96807;-82
2022/11/29 00:08:16;;;;;;;43.25;18.38;;;;;;;10.97;81.22;101430.81;10343050;28;96779;-82
2022/11/29 00:13:20;;;;;;;40.40;17.27;;;;;;;10.93;80.87;101421.28;10343011;28;96683;-81
2022/11/29 00:18:24;;;;;;;31.33;18.55;;;;;;;10.92;80.85;101411.63;10342851;28;96880;-82
2022/11/29 00:23:27;;;;;;;23.70;15.57;;;;;;;10.99;80.88;101426.38;10339536;28;96842;-81
2022/11/29 00:28:32;;;;;;;28.95;17.13;;;;;;;11.03;80.43;101420.16;10301228;28;96839;-81
2022/11/29 00:33:35;;;;;;;28.35;16.70;;;;;;;10.96;80.70;101418.56;10300441;28;96666;-82
2022/11/29 00:38:38;;;;;;;26.23;15.02;;;;;;;11.05;81.06;101417.47;10311639;28;96649;-82
2022/11/29 00:43:43;;;;;;;27.05;15.45;;;;;;;10.99;80.81;101415.84;10341437;28;96548;-82
2022/11/29 00:48:47;;;;;;;26.80;15.60;;;;;;;10.94;80.96;101401.94;10341798;28;96870;-82
2022/11/29 00:53:50;;;;;;;29.15;16.45;;;;;;;10.92;81.75;101395.81;10341434;28;96761;-82
2022/11/29 00:58:54;;;;;;;31.63;15.93;;;;;;;10.92;81.00;101403.72;10302957;28;96681;-81
2022/11/29 01:03:59;;;;;;;33.55;16.15;;;;;;;10.99;80.86;101412.38;10299823;28;97270;-82
2022/11/29 01:09:04;;;;;;;22.90;13.98;;;;;;;10.92;81.50;101416.03;10299981;28;96712;-82
2022/11/29 01:14:09;;;;;;;19.77;12.57;;;;;;;10.67;81.63;101410.44;10299966;28;96671;-82
2022/11/29 01:19:12;;;;;;;28.27;12.55;;;;;;;10.70;81.81;101406.88;10299446;28;97679;-82
2022/11/29 01:24:15;;;;;;;21.20;12.82;;;;;;;10.66;81.83;101407.84;10307473;28;96693;-82
2022/11/29 01:29:20;;;;;;;24.77;13.95;;;;;;;10.60;82.18;101406.22;10331792;28;97068;-82
2022/11/29 01:34:23;;;;;;;24.15;14.55;;;;;;;10.70;81.42;101402.47;10298779;28;96538;-82
2022/11/29 01:39:26;;;;;;;22.67;13.13;;;;;;;10.73;81.93;101396.28;10298831;28;96723;-82
2022/11/29 01:45:04;;;;;;;25.27;13.40;;;;;;;10.75;81.37;101399.75;10297829;28;96756;-82
2022/11/29 01:50:09;;;;;;;23.98;13.25;;;;;;;10.86;81.19;101395.09;10298947;28;96799;-82
2022/11/29 01:55:13;;;;;;;44.97;14.63;;;;;;;10.87;81.07;101388.94;10316795;28;96687;-82
2022/11/29 02:00:19;;;;;;;31.50;13.33;;;;;;;10.88;81.08;101395.94;10338860;28;96625;-81
2022/11/29 02:05:24;;;;;;;52.78;15.90;;;;;;;10.86;81.45;101397.72;10314008;28;96794;-82
2022/11/29 02:10:44;;;;;;;28.50;14.35;;;;;;;10.85;81.26;101396.03;10298423;28;97029;-82
2022/11/29 02:15:56;;;;;;;62.10;15.02;;;;;;;10.84;80.99;101384.59;10297971;28;96682;-81
2022/11/29 02:21:27;;;;;;;63.90;15.15;;;;;;;10.77;82.12;101371.59;10298062;28;96658;-82
2022/11/29 02:26:59;;;;;;;36.17;13.20;;;;;;;10.76;81.61;101376.03;10323808;28;97123;-81
2022/11/29 02:32:40;;;;;;;72.70;14.90;;;;;;;10.69;82.16;101390.22;10338527;28;96901;-82
2022/11/29 02:38:01;;;;;;;99.80;16.33;;;;;;;10.70;81.85;101394.56;10326417;28;96566;-82
2022/11/29 02:43:28;;;;;;;42.75;13.55;;;;;;;10.67;81.67;101397.28;10297563;28;96782;-82
2022/11/29 02:48:50;;;;;;;91.57;16.20;;;;;;;10.66;81.39;101378.91;10296701;28;96784;-82
2022/11/29 02:54:00;;;;;;;191.40;22.65;;;;;;;10.55;81.58;101379.13;10297419;28;96760;-82
2022/11/29 02:59:11;;;;;;;171.98;21.75;;;;;;;10.61;81.99;101384.25;10296113;28;97058;-81
2022/11/29 03:04:25;;;;;;;171.63;20.45;;;;;;;10.66;81.50;101373.63;10296959;28;96615;-81
2022/11/29 03:09:36;;;;;;;203.15;21.48;;;;;;;10.46;82.43;101370.53;10296527;28;96759;-82
2022/11/29 03:14:49;;;;;;;67.40;14.30;;;;;;;10.54;81.70;101369.47;10296993;28;96944;-82
2022/11/29 03:20:06;;;;;;;94.25;14.75;;;;;;;10.55;81.75;101370.34;10295790;28;96520;-81
2022/11/29 03:25:17;;;;;;;57.95;13.88;;;;;;;10.51;81.76;101385.34;10311452;28;96793;-82
2022/11/29 03:30:21;;;;;;;144.38;17.77;;;;;;;10.47;82.21;101394.19;10311751;28;96861;-82
2022/11/29 03:35:36;;;;;;;144.73;17.60;;;;;;;10.50;81.86;101388.88;10296483;28;96984;-82
2022/11/29 03:40:46;;;;;;;166.80;18.23;;;;;;;10.47;82.25;101372.31;10295796;28;96934;-82
2022/11/29 03:45:55;;;;;;;178.07;19.52;;;;;;;10.41;81.82;101359.25;10296037;28;96687;-82
2022/11/29 03:51:06;;;;;;;84.38;15.27;;;;;;;10.43;82.23;101365.34;10295529;28;96791;-81
2022/11/29 03:56:26;;;;;;;95.15;15.20;;;;;;;10.48;82.01;101359.09;10305914;28;96908;-82
2022/11/29 04:01:54;;;;;;;36.40;12.38;;;;;;;10.38;81.92;101354.06;10334474;28;97514;-81
2022/11/29 04:07:15;;;;;;;43.55;12.18;;;;;;;10.21;82.54;101347.38;10295929;28;96852;-81
2022/11/29 04:12:45;;;;;;;26.02;10.40;;;;;;;10.07;82.63;101346.81;10301115;28;96804;-81
2022/11/29 04:18:14;;;;;;;17.48;9.80;;;;;;;9.98;82.56;101343.50;10301543;28;96689;-81
2022/11/29 04:24:04;;;;;;;30.92;10.82;;;;;;;10.04;82.41;101353.88;10334038;28;96908;-81
2022/11/29 04:29:19;;;;;;;14.55;9.05;;;;;;;10.02;82.36;101355.72;10325061;28;97167;-81
2022/11/29 04:34:46;;;;;;;15.55;9.50;;;;;;;9.98;82.05;101341.75;10343411;28;96787;-81
2022/11/29 04:40:24;;;;;;;19.40;8.68;;;;;;;9.99;82.09;101326.81;10305324;28;96708;-81
2022/11/29 04:45:59;;;;;;;15.57;8.38;;;;;;;9.85;82.35;101310.44;10301172;28;96714;-81
2022/11/29 04:51:21;;;;;;;16.77;8.07;;;;;;;9.87;81.95;101321.81;10300408;28;96452;-81
2022/11/29 04:56:34;;;;;;;18.35;8.30;;;;;;;9.64;82.36;101334.53;10307871;28;96701;-81
2022/11/29 05:01:50;;;;;;;17.02;8.35;;;;;;;9.74;82.42;101321.19;10299893;28;96993;-81
2022/11/29 05:07:02;;;;;;;30.75;10.60;;;;;;;9.73;82.58;101340.47;10299632;28;97059;-81
2022/11/29 05:12:14;;;;;;;17.33;8.68;;;;;;;9.88;82.19;101340.16;10322627;28;96751;-81
2022/11/29 05:17:33;;;;;;;27.83;9.57;;;;;;;9.97;82.27;101347.88;10341318;28;96636;-81
2022/11/29 05:22:48;;;;;;;17.52;9.48;;;;;;;9.89;82.25;101355.06;10341130;28;96589;-81
2022/11/29 05:27:58;;;;;;;23.33;9.10;;;;;;;9.89;82.51;101343.69;10328191;28;96749;-82
2022/11/29 05:33:17;;;;;;;21.75;9.52;;;;;;;9.98;82.06;101347.00;10299214;28;96855;-82
2022/11/29 05:38:39;;;;;;;24.73;8.50;;;;;;;9.89;82.63;101331.41;10299412;28;96698;-81
2022/11/29 05:43:59;;;;;;;19.13;8.00;;;;;;;9.86;82.33;101333.22;10300943;28;96711;-81
2022/11/29 05:49:17;;;;;;;13.13;8.00;;;;;;;10.06;81.79;101324.03;10298977;28;97064;-82
2022/11/29 05:54:29;;;;;;;15.00;8.00;;;;;;;9.96;82.15;101319.88;10299025;28;96682;-81
2022/11/29 05:59:38;;;;;;;17.83;8.85;;;;;;;9.96;82.11;101326.88;10320602;28;96837;-81
2022/11/29 06:04:57;;;;;;;18.42;9.05;;;;;;;9.97;82.02;101334.75;10338864;28;96816;-82
2022/11/29 06:10:04;;;;;;;16.75;8.75;;;;;;;10.02;81.82;101334.66;10339817;28;96653;-82
2022/11/29 06:15:38;;;;;;;16.45;8.30;;;;;;;9.96;82.10;101332.16;10339443;28;96520;-81
2022/11/29 06:20:57;;;;;;;15.13;7.88;;;;;;;9.98;82.39;101339.13;10338075;28;96864;-82
2022/11/29 06:26:18;;;;;;;16.63;8.68;;;;;;;10.06;81.64;101334.56;10339201;28;96664;-82
2022/11/29 06:31:28;;;;;;;12.82;7.40;;;;;;;9.99;81.82;101348.72;10338371;28;96876;-81
2022/11/29 06:36:36;;;;;;;11.90;7.28;;;;;;;10.11;81.12;101351.09;10321511;28;96667;-82
2022/11/29 06:41:39;;;;;;;9.60;6.35;;;;;;;10.00;81.64;101358.34;10297627;28;96650;-81
2022/11/29 06:46:47;;;;;;;11.85;6.20;;;;;;;9.89;81.77;101367.34;10297705;28;97013;-81
2022/11/29 06:52:05;;;;;;;10.13;4.97;;;;;;;9.86;81.72;101377.91;10296655;28;96688;-81
2022/11/29 06:57:16;;;;;;;13.20;6.70;;;;;;;9.87;81.54;101372.63;10297213;28;96715;-82
2022/11/29 07:02:34;;;;;;;8.00;4.97;;;;;;;9.94;81.77;101371.63;10327948;28;96918;-81
2022/11/29 07:07:37;;;;;;;10.38;6.07;;;;;;;10.05;81.07;101361.78;10338241;28;96612;-82
2022/11/29 07:12:41;;;;;;;12.32;5.90;;;;;;;9.98;81.69;101356.66;10336814;28;96949;-81
2022/11/29 07:17:56;;;;;;;10.20;5.05;;;;;;;9.93;81.10;101354.13;10337827;28;96602;-81
2022/11/29 07:23:06;;;;;;;8.93;5.38;;;;;;;10.04;80.96;101360.03;10337688;28;96775;-81
2022/11/29 07:28:21;;;;;;;11.23;6.80;;;;;;;9.97;80.96;101357.53;10337841;28;97693;-81
2022/11/29 07:33:34;;;;;;;12.87;5.97;;;;;;;9.77;81.42;101357.06;10337468;28;96758;-81
2022/11/29 07:38:53;;;;;;;11.25;6.00;;;;;;;9.86;81.60;101342.00;10337259;28;96628;-81
2022/11/29 07:44:03;;;;;;;11.50;5.82;;;;;;;9.76;81.49;101352.72;10326343;28;97446;-81
2022/11/29 07:49:09;;;;;;;11.90;6.07;;;;;;;9.74;81.32;101347.50;10303156;28;96783;-81
2022/11/29 07:54:17;;;;;;;7.88;5.28;;;;;;;9.73;81.32;101343.09;10304078;28;97273;-81
2022/11/29 07:59:21;;;;;;;10.75;5.70;;;;;;;9.80;81.55;101347.34;10302707;28;96823;-81
2022/11/29 08:04:25;;;;;;;10.02;6.13;;;;;;;9.75;81.52;101345.69;10302751;28;96963;-81
2022/11/29 08:09:28;;;;;;;11.20;5.70;;;;;;;9.71;81.74;101355.41;10302316;28;96691;-81
2022/11/29 08:14:32;;;;;;;9.38;5.57;;;;;;;9.80;81.27;101362.25;10302542;28;96621;-81
2022/11/29 08:19:37;;;;;;;13.13;6.57;;;;;;;9.74;81.37;101350.13;10303243;28;96581;-81
2022/11/29 08:24:40;;;;;;;12.33;6.20;;;;;;;9.91;80.82;101345.41;10302040;28;96691;-81
2022/11/29 08:29:43;;;;;;;12.02;6.43;;;;;;;10.01;80.64;101356.59;10301599;28;97206;-81
2022/11/29 08:34:48;;;;;;;8.57;5.90;;;;;;;10.19;80.11;101353.59;10325303;28;96607;-81
2022/11/29 08:39:51;;;;;;;10.98;6.35;;;;;;;10.22;80.43;101348.25;10301383;28;96654;-81
2022/11/29 08:44:54;;;;;;;12.48;6.22;;;;;;;10.20;79.74;101340.41;10301316;28;96665;-81
2022/11/29 08:50:02;;;;;;;8.73;5.65;;;;;;;10.22;80.36;101329.84;10301251;28;96616;-81
2022/11/29 08:55:06;;;;;;;9.30;5.50;;;;;;;10.07;80.44;101322.28;10301255;28;97403;-81
2022/11/29 09:00:10;;;;;;;11.55;6.40;;;;;;;10.14;80.59;101321.28;10300280;28;96804;-81
2022/11/29 09:05:15;;;;;;;11.53;6.37;;;;;;;10.07;80.69;101322.28;10336159;28;96880;-81
2022/11/29 09:10:18;;;;;;;8.95;6.55;;;;;;;9.99;80.64;101324.19;10341519;28;96628;-81
2022/11/29 09:15:21;;;;;;;10.82;6.53;;;;;;;9.93;80.65;101325.19;10341381;28;96831;-81
2022/11/29 09:20:26;;;;;;;11.80;5.93;;;;;;;10.22;80.02;101328.09;10341283;28;96630;-81
2022/11/29 09:25:29;;;;;;;10.05;6.53;;;;;;;10.34;79.72;101336.59;10339272;28;96744;-81
2022/11/29 09:30:35;;;;;;;12.13;5.57;;;;;;;10.46;79.76;101339.84;10338263;28;96848;-81
2022/11/29 09:35:39;;;;;;;9.65;6.53;;;;;;;10.55;79.48;101349.31;10299700;28;96636;-81
2022/11/29 09:40:51;;;;;;;10.03;6.33;;;;;;;10.66;79.28;101348.16;10299495;28;96721;-81
2022/11/29 09:46:01;;;;;;;10.48;6.40;;;;;;;10.64;78.92;101346.47;10337759;28;96816;-81
2022/11/29 09:51:18;;;;;;;10.27;6.00;;;;;;;10.76;78.24;101356.72;10340443;28;96728;-81
2022/11/29 09:56:28;;;;;;;10.20;6.97;;;;;;;10.76;78.09;101364.63;10339967;28;96711;-81
2022/11/29 10:01:37;;;;;;;10.27;6.57;;;;;;;10.70;78.80;101356.84;10331573;28;96853;-81
2022/11/29 10:06:45;;;;;;;9.82;6.85;;;;;;;10.69;78.49;101363.03;10339256;28;96678;-81
2022/11/29 10:12:01;;;;;;;10.95;7.32;;;;;;;10.72;78.57;101355.94;10339799;28;96599;-81
2022/11/29 10:17:07;;;;;;;;;;;;;;;10.48;79.42;101350.34;10324153;28;97197;-81
2022/11/29 10:22:16;;;;;;;;;;;;;;;10.45;79.28;101342.50;10299135;28;97183;-81
2022/11/29 10:27:23;;;;;;;13.00;8.45;;;;;;;10.49;79.58;101349.44;10298024;28;96789;-81
2022/11/29 10:32:32;;;;;;;13.13;8.48;;;;;;;10.67;78.26;101349.03;10301218;28;96790;-81
2022/11/29 10:37:36;;;;;;;11.63;6.97;;;;;;;10.76;78.23;101335.66;10298336;28;97056;-81
2022/11/29 10:42:49;;;;;;;10.50;7.00;;;;;;;10.66;78.93;101339.41;10297817;28;97576;-81
2022/11/29 10:47:53;;;;;;;10.32;7.20;;;;;;;10.55;79.30;101344.91;10297729;28;96993;-81
2022/11/29 10:53:04;;;;;;;9.93;6.55;;;;;;;10.63;78.81;101347.34;10298973;28;96564;-81
2022/11/29 10:58:14;;;;;;;11.35;7.45;;;;;;;10.68;78.27;101345.50;10320432;28;97302;-80
2022/11/29 11:03:24;;;;;;;11.40;7.80;;;;;;;10.63;78.21;101334.19;10296634;28;96533;-81
2022/11/29 11:08:30;;;;;;;10.05;7.57;;;;;;;10.83;78.71;101322.34;10334258;28;96744;-81
2022/11/29 11:13:35;;;;;;;13.57;8.30;;;;;;;11.05;78.61;101325.28;10337980;28;96743;-81
2022/11/29 11:18:38;;;;;;;12.43;8.32;;;;;;;11.10;77.82;101324.31;10342429;28;96612;-81
2022/11/29 11:23:52;;;;;;;14.43;9.80;;;;;;;11.18;77.72;101300.44;10344594;28;96714;-81
2022/11/29 11:28:59;;;;;;;14.43;10.50;;;;;;;11.18;77.53;101289.91;10344895;28;96746;-81
2022/11/29 11:34:29;;;;;;;14.63;9.48;;;;;;;11.37;76.94;101275.34;10344548;28;96629;-81
2022/11/29 11:39:33;;;;;;;15.15;9.32;;;;;;;11.67;77.00;101271.84;10303233;28;96724;-81
2022/11/29 11:44:48;;;;;;;14.80;8.90;;;;;;;11.80;76.37;101288.19;10305124;28;96572;-81
2022/11/29 11:49:55;;;;;;;11.30;7.90;;;;;;;11.78;76.06;101280.34;10302936;28;96717;-80
2022/11/29 11:55:04;;;;;;;13.02;8.30;;;;;;;11.75;75.86;101264.59;10303421;28;96845;-81
2022/11/29 12:00:38;;;;;;;15.15;8.10;;;;;;;11.67;75.68;101247.25;10334109;28;96706;-81
2022/11/29 12:06:14;;;;;;;12.90;7.75;;;;;;;12.00;75.51;101239.25;10343668;28;96808;-81
2022/11/29 12:11:20;;;;;;;12.10;8.85;;;;;;;12.22;75.49;101231.56;10343509;28;96799;-81
2022/11/29 12:16:28;;;;;;;10.15;7.75;;;;;;;12.02;74.85;101223.34;10342532;28;96705;-81
2022/11/29 12:21:37;;;;;;;11.00;8.00;;;;;;;12.24;74.41;101208.59;10343599;28;97028;-81
2022/11/29 12:26:43;;;;;;;13.77;9.38;;;;;;;12.18;74.48;101203.53;10343693;28;96613;-81
2022/11/29 12:32:17;;;;;;;15.10;9.45;;;;;;;12.23;74.11;101193.69;10341131;28;97195;-80
2022/11/29 12:37:26;;;;;;;13.77;9.77;;;;;;;12.18;74.65;101187.69;10343158;28;96712;-81
2022/11/29 12:42:41;;;;;;;13.38;9.82;;;;;;;12.18;74.90;101172.72;10342605;28;96614;-81
2022/11/29 12:47:55;;;;;;;13.50;9.83;;;;;;;12.28;74.23;101157.44;10342784;28;96760;-81
2022/11/29 12:53:10;;;;;;;16.00;9.18;;;;;;;12.38;74.12;101154.47;10302885;28;97751;-81
2022/11/29 12:58:25;;;;;;;11.23;8.38;;;;;;;12.28;73.06;101136.34;10300566;28;96951;-81
2022/11/29 13:03:37;;;;;;;12.57;8.57;;;;;;;12.40;73.99;101133.31;10300255;28;97153;-81
2022/11/29 13:09:13;;;;;;;15.43;8.93;;;;;;;12.51;73.13;101134.66;10300903;28;96718;-81
2022/11/29 13:14:26;;;;;;;16.10;9.40;;;;;;;12.93;72.64;101119.16;10300425;28;96638;-81
2022/11/29 13:19:50;;;;;;;13.10;8.00;;;;;;;14.16;69.54;101113.56;10300175;28;96611;-81
2022/11/29 13:24:57;;;;;;;25.33;18.13;;;;;;;15.42;67.06;101111.63;10301199;28;96885;-81
2022/11/29 13:30:04;;;;;;;24.20;17.50;;;;;;;15.75;65.80;101097.63;10299656;28;97109;-81
2022/11/29 13:35:18;;;;;;;19.38;14.18;;;;;;;16.46;64.11;101090.66;10299268;28;96630;-81
2022/11/29 13:40:31;;;;;;;18.00;12.30;;;;;;;16.29;64.09;101078.16;10298224;28;96542;-81
2022/11/29 13:45:40;;;;;;;16.05;11.32;;;;;;;15.87;64.56;101065.19;10298074;28;96710;-81
2022/11/29 13:50:44;;;;;;;15.75;11.25;;;;;;;15.19;65.52;101058.72;10298705;28;96678;-81
2022/11/29 13:55:58;;;;;;;15.98;10.90;;;;;;;14.91;65.79;101059.13;10305259;28;97046;-81
2022/11/29 14:01:08;;;;;;;16.42;12.10;;;;;;;14.67;66.58;101055.78;10299958;28;97239;-81
2022/11/29 14:06:17;;;;;;;14.45;8.80;;;;;;;14.65;66.47;101044.38;10298845;28;96603;-81
2022/11/29 14:11:24;;;;;;;13.40;9.52;;;;;;;14.84;66.10;101041.75;10326867;28;96575;-81
2022/11/29 14:16:34;;;;;;;13.70;9.40;;;;;;;15.02;65.15;101021.53;10338691;28;96685;-81
2022/11/29 14:22:30;;;;;;;12.77;9.05;;;;;;;15.13;64.96;101022.75;10340244;28;96701;-81
2022/11/29 14:27:57;;;;;;;14.75;8.82;;;;;;;15.51;64.35;101018.38;10339375;28;96776;-81
2022/11/29 14:33:09;;;;;;;12.45;8.43;;;;;;;15.51;64.61;101008.59;10338713;28;97059;-81
2022/11/29 14:38:19;;;;;;;13.85;8.20;;;;;;;15.79;63.98;101002.81;10319605;28;96733;-81
2022/11/29 14:43:26;;;;;;;9.57;6.95;;;;;;;16.36;62.89;100999.03;10297390;28;96802;-81
2022/11/29 14:48:33;;;;;;;10.80;8.30;;;;;;;16.81;61.47;100992.19;10306824;28;96857;-82
2022/11/29 14:53:37;;;;;;;11.55;7.95;;;;;;;17.60;59.33;100993.16;10338247;28;96985;-82
2022/11/29 14:58:40;;;;;;;14.25;8.45;;;;;;;18.26;57.62;100981.28;10337839;28;96844;-82
2022/11/29 15:03:49;;;;;;;13.02;8.25;;;;;;;18.02;58.13;100982.72;10338227;28;96640;-79
2022/11/29 15:09:03;;;;;;;14.10;9.68;;;;;;;17.46;57.05;100971.78;10337119;28;96650;-81
2022/11/29 15:14:16;;;;;;;15.07;9.37;;;;;;;17.78;56.87;100963.69;10338915;28;96743;-82
2022/11/29 15:19:49;;;;;;;13.48;9.68;;;;;;;17.91;56.07;100953.19;10337790;28;96696;-82
2022/11/29 15:24:55;;;;;;;10.75;8.10;;;;;;;17.46;59.34;100948.72;10307856;28;96602;-82
2022/11/29 15:29:59;;;;;;;12.18;8.32;;;;;;;17.31;59.09;100941.56;10295270;28;99591;-81
2022/11/29 15:35:05;;;;;;;12.27;8.90;;;;;;;17.07;60.37;100950.91;10296914;28;96960;-82
2022/11/29 15:40:12;;;;;;;12.48;8.35;;;;;;;16.91;61.14;100953.53;10296431;28;96863;-81
2022/11/29 15:45:37;;;;;;;11.75;8.23;;;;;;;16.65;61.29;100943.44;10296506;28;96698;-81
2022/11/29 15:50:44;;;;;;;;;;;;;;;16.55;61.42;100939.56;10295118;28;96867;-81
2022/11/29 15:55:50;;;;;;;13.13;8.30;;;;;;;16.43;62.40;100920.78;10296876;28;96763;-81
2022/11/29 16:00:54;;;;;;;11.52;8.13;;;;;;;16.36;63.27;100924.66;10295477;28;96983;-81
2022/11/29 16:06:06;;;;;;;12.48;8.75;;;;;;;16.06;64.31;100921.81;10301182;28;96831;-81
2022/11/29 16:11:15;;;;;;;13.18;9.20;;;;;;;15.65;65.10;100918.59;10328693;28;96814;-81
2022/11/29 16:16:21;;;;;;;11.52;8.20;;;;;;;15.37;65.61;100920.88;10342705;28;96959;-81
2022/11/29 16:21:27;;;;;;;15.73;8.43;;;;;;;14.98;67.88;100929.81;10342501;28;96712;-81
2022/11/29 16:26:35;;;;;;;15.68;9.48;;;;;;;14.70;68.61;100932.91;10343177;28;96796;-81
2022/11/29 16:31:38;;;;;;;12.10;8.65;;;;;;;14.48;69.79;100932.16;10341904;28;96920;-81
2022/11/29 16:36:43;;;;;;;15.15;10.45;;;;;;;14.09;70.98;100923.31;10342730;28;96551;-81
2022/11/29 16:42:02;;;;;;;16.75;11.02;;;;;;;13.77;71.93;100921.13;10312938;28;96795;-81
2022/11/29 16:47:11;;;;;;;17.02;10.02;;;;;;;13.60;72.94;100906.00;10307428;28;97325;-81
2022/11/29 16:52:25;;;;;;;17.05;10.95;;;;;;;13.42;73.55;100904.09;10341416;28;96763;-81
2022/11/29 16:57:29;;;;;;;21.55;12.00;;;;;;;13.10;73.42;100892.19;10341461;28;96998;-81
2022/11/29 17:02:33;;;;;;;17.37;11.43;;;;;;;12.86;74.77;100908.13;10340650;28;99143;-81
2022/11/29 17:07:40;;;;;;;15.98;10.02;;;;;;;12.75;74.47;100900.63;10305275;28;96670;-81
2022/11/29 17:12:43;;;;;;;18.00;10.48;;;;;;;12.70;74.40;100892.00;10320658;28;96841;-81
2022/11/29 17:17:50;;;;;;;18.45;11.70;;;;;;;12.57;75.50;100897.78;10340309;28;96542;-81
2022/11/29 17:22:54;;;;;;;21.40;14.45;;;;;;;12.39;75.58;100894.88;10339612;28;96787;-81
2022/11/29 17:27:58;;;;;;;26.98;17.98;;;;;;;12.15;76.90;100908.13;10340791;28;96698;-81
2022/11/29 17:33:01;;;;;;;20.83;13.43;;;;;;;12.11;76.48;100899.47;10340533;28;96855;-81
2022/11/29 17:38:05;;;;;;;21.70;12.35;;;;;;;11.91;76.60;100901.09;10333185;28;97584;-80
2022/11/29 17:43:09;;;;;;;22.90;14.32;;;;;;;11.69;77.30;100911.47;10298759;28;96774;-81
2022/11/29 17:48:12;;;;;;;25.80;15.38;;;;;;;11.75;77.99;100916.56;10299016;28;96718;-81
2022/11/29 17:53:16;;;;;;;25.00;14.77;;;;;;;11.80;76.98;100924.31;10298273;28;98261;-81
2022/11/29 17:58:19;;;;;;;23.88;15.23;;;;;;;11.81;77.36;100911.06;10331036;28;96758;-81
2022/11/29 18:03:23;;;;;;;38.15;23.05;;;;;;;11.77;77.11;100911.22;10338655;28;96773;-81
2022/11/29 18:08:27;;;;;;;40.13;23.33;;;;;;;11.78;77.33;100910.31;10339579;28;96640;-80
2022/11/29 18:13:31;;;;;;;41.70;25.15;;;;;;;11.67;77.83;100883.44;10329471;28;96663;-80
2022/11/29 18:18:35;;;;;;;32.90;19.38;;;;;;;11.70;77.51;100909.72;10339165;28;96676;-81
2022/11/29 18:23:42;;;;;;;45.63;28.08;;;;;;;11.51;78.47;100906.81;10338469;28;96823;-81
2022/11/29 18:28:46;;;;;;;51.63;32.42;;;;;;;11.56;78.19;100906.69;10336788;28;97981;-81
2022/11/29 18:33:52;;;;;;;37.55;24.98;;;;;;;11.42;78.87;100915.03;10338543;28;96666;-81
2022/11/29 18:38:58;;;;;;;36.90;24.60;;;;;;;11.42;78.35;100937.88;10337256;28;97246;-81
2022/11/29 18:44:04;;;;;;;41.10;27.45;;;;;;;11.45;78.56;100935.16;10297377;28;96598;-81
2022/11/29 18:49:10;;;;;;;36.88;23.38;;;;;;;11.29;79.13;100911.94;10297731;28;97480;-81
2022/11/29 18:54:17;;;;;;;39.45;24.90;;;;;;;11.16;78.22;100922.91;10296738;28;96586;-80
2022/11/29 18:59:21;;;;;;;44.17;26.63;;;;;;;11.15;78.55;100926.44;10296001;28;96983;-80
2022/11/29 19:04:25;;;;;;;75.07;50.57;;;;;;;11.15;78.49;100927.31;10297326;28;97335;-81
2022/11/29 19:09:29;;;;;;;62.03;39.90;;;;;;;11.23;78.96;100927.91;10296433;28;96922;-81
2022/11/29 19:14:32;;;;;;;63.67;42.50;;;;;;;10.99;79.45;100930.44;10332810;28;96806;-81
2022/11/29 19:19:35;;;;;;;48.63;30.92;;;;;;;10.88;79.43;100917.59;10334406;28;96856;-80
2022/11/29 19:24:40;;;;;;;41.80;28.00;;;;;;;10.93;79.76;100930.63;10296437;28;96726;-81
2022/11/29 19:29:43;;;;;;;52.47;33.47;;;;;;;10.86;79.81;100942.25;10296317;28;96598;-80
2022/11/29 19:34:46;;;;;;;51.58;33.22;;;;;;;10.96;79.56;100938.41;10296097;28;96800;-81
2022/11/29 19:39:51;;;;;;;65.78;41.15;;;;;;;10.98;79.10;100924.31;10301268;28;97066;-80
2022/11/29 19:44:55;;;;;;;43.75;28.52;;;;;;;10.82;79.59;100932.69;10302657;28;96805;-81
2022/11/29 19:50:18;;;;;;;47.38;30.02;;;;;;;10.78;79.42;100925.81;10302586;28;96935;-81
2022/11/29 19:55:22;;;;;;;44.35;26.95;;;;;;;10.78;79.06;100926.69;10303240;28;97432;-81
2022/11/29 20:00:27;;;;;;;40.07;26.57;;;;;;;10.76;79.24;100925.00;10340100;28;96668;-81
2022/11/29 20:05:30;;;;;;;41.60;23.30;;;;;;;10.66;78.95;100932.28;10342966;28;96727;-81
2022/11/29 20:10:34;;;;;;;63.78;52.90;;;;;;;10.58;78.77;100931.66;10342163;28;96596;-81
2022/11/29 20:15:38;;;;;;;37.00;21.70;;;;;;;10.45;79.21;100922.41;10342857;28;96855;-81
2022/11/29 20:20:41;;;;;;;35.67;23.27;;;;;;;10.40;78.69;100913.78;10343266;28;96731;-80
2022/11/29 20:25:50;;;;;;;43.30;24.85;;;;;;;10.39;79.35;100898.88;10342729;28;96624;-80
2022/11/29 20:30:53;;;;;;;33.97;20.33;;;;;;;10.29;79.39;100910.56;10341107;28;96774;-81
2022/11/29 20:36:05;;;;;;;30.42;20.42;;;;;;;10.23;79.34;100924.75;10341948;28;96722;-80
2022/11/29 20:41:15;;;;;;;42.03;27.75;;;;;;;10.09;79.93;100921.63;10335510;28;96750;-80
2022/11/29 20:46:18;;;;;;;34.70;20.40;;;;;;;10.07;79.75;100923.44;10317863;28;96685;-81
2022/11/29 20:51:27;;;;;;;26.85;17.42;;;;;;;9.81;80.25;100914.53;10341176;28;96675;-81
2022/11/29 20:56:31;;;;;;;26.63;16.45;;;;;;;9.88;80.04;100910.84;10341620;28;96664;-81
2022/11/29 21:01:34;;;;;;;32.40;18.37;;;;;;;9.91;79.81;100908.13;10340094;28;96833;-80
2022/11/29 21:06:38;;;;;;;26.83;17.70;;;;;;;9.84;80.13;100886.41;10341626;28;96666;-81
2022/11/29 21:11:43;;;;;;;29.50;18.52;;;;;;;9.81;80.15;100896.97;10341710;28;96986;-81
2022/11/29 21:16:47;;;;;;;28.77;17.38;;;;;;;9.73;80.40;100896.31;10340964;28;96780;-80
2022/11/29 21:22:03;;;;;;;26.92;17.33;;;;;;;9.65;80.53;100877.28;10340030;28;96746;-80
2022/11/29 21:27:13;;;;;;;26.08;15.52;;;;;;;9.66;80.30;100859.72;10340854;28;96844;-81
2022/11/29 21:32:21;;;;;;;25.85;15.60;;;;;;;9.59;80.01;100863.44;10340492;28;96542;-80
2022/11/29 21:37:28;;;;;;;27.27;15.13;;;;;;;9.61;79.83;100862.47;10339379;28;96925;-81
2022/11/29 21:42:32;;;;;;;27.63;14.25;;;;;;;9.60;79.79;100859.91;10322360;28;97946;-80
2022/11/29 21:47:35;;;;;;;20.00;13.10;;;;;;;9.59;80.23;100856.41;10299072;28;97482;-81
2022/11/29 21:52:38;;;;;;;26.73;15.82;;;;;;;9.51;80.85;100855.75;10301791;28;96957;-80
2022/11/29 21:57:43;;;;;;;25.17;16.30;;;;;;;9.54;80.82;100860.03;10339499;28;97176;-80
2022/11/29 22:02:46;;;;;;;28.20;16.37;;;;;;;9.56;80.52;100850.38;10338639;28;96715;-80
2022/11/29 22:07:49;;;;;;;20.90;14.07;;;;;;;9.59;80.03;100839.78;10339407;28;96702;-80
2022/11/29 22:12:54;;;;;;;26.75;16.98;;;;;;;9.48;80.64;100832.19;10338283;28;97582;-80
2022/11/29 22:17:57;;;;;;;31.73;17.20;;;;;;;9.38;81.08;100804.41;10338740;28;96878;-80
2022/11/29 22:23:00;;;;;;;26.33;15.48;;;;;;;9.30;81.45;100808.13;10338845;28;96940;-80
2022/11/29 22:28:05;;;;;;;22.25;14.77;;;;;;;9.24;81.07;100816.19;10323825;28;96752;-80
2022/11/29 22:33:08;;;;;;;22.95;13.02;;;;;;;9.32;80.93;100828.22;10297530;28;96973;-80
2022/11/29 22:38:15;;;;;;;26.25;15.05;;;;;;;9.25;80.51;100825.78;10297469;28;96494;-81
2022/11/29 22:43:20;;;;;;;17.02;11.80;;;;;;;9.18;80.43;100816.28;10297716;28;97327;-80
2022/11/29 22:48:23;;;;;;;22.47;12.70;;;;;;;9.12;80.62;100814.72;10297297;28;96930;-80
2022/11/29 22:53:26;;;;;;;22.25;13.35;;;;;;;9.28;80.39;100823.09;10297226;28;96609;-80
2022/11/29 22:58:30;;;;;;;23.33;12.82;;;;;;;9.21;79.97;100819.72;10312177;28;96713;-80
2022/11/29 23:03:35;;;;;;;23.07;15.47;;;;;;;9.06;80.97;100814.84;10310582;28;96677;-80
2022/11/29 23:08:39;;;;;;;23.90;16.40;;;;;;;8.97;81.49;100822.94;10296346;28;96784;-80
2022/11/29 23:13:44;;;;;;;26.73;16.77;;;;;;;9.03;81.22;100831.53;10308967;28;96830;-80
2022/11/29 23:18:48;;;;;;;25.20;14.95;;;;;;;9.20;80.74;100836.38;10324964;28;96779;-80
2022/11/29 23:23:51;;;;;;;29.38;17.25;;;;;;;9.15;81.23;100844.34;10296258;28;97519;-81
2022/11/29 23:28:59;;;;;;;25.77;17.60;;;;;;;8.98;81.87;100838.66;10296156;28;96869;-80